Terminal Aerodrome Forecast
Issued by NWS

Home | Current Version | Previous Version | Text Only | Print | Product List | Glossary On
Versions: 1 2 3 4 5 6 7 8 9 10 11 12 13
309
FTUS45 KPSR 220123 AAA
TAFIPL
TAF AMD
KIPL 220123Z 2201/2224 27025G35KT 6SM BLDU SKC
     FM220700 28014G24KT P6SM SKC
     FM221200 28012KT P6SM SKC=

USA.gov is the U.S. government's official web portal to all federal, state and local government web resources and services.